Time;durP1;ratioP1;P1;durP2;ratioP2;P2;SDS_P1;SDS_P2;PMS_P1;PMS_P2;Temp;Humidity;BMP_temperature;BMP_pressure;BME280_temperature;BME280_humidity;BME280_pressure;Samples;Min_cycle;Max_cycle;Signal;HPM_P1;HPM_P2
2023/08/27 00:02:06;;;;;;;8.32;5.72;;;23.70;99.90;;;;;;5059959;28;20414;-65
2023/08/27 00:04:32;;;;;;;8.98;5.38;;;23.70;99.90;;;;;;5065399;28;20723;-64
2023/08/27 00:06:58;;;;;;;6.40;4.80;;;23.60;99.90;;;;;;5061126;28;20127;-64
2023/08/27 00:09:23;;;;;;;5.50;4.97;;;23.50;99.90;;;;;;5060901;28;20051;-64
2023/08/27 00:11:49;;;;;;;6.43;5.35;;;23.40;99.90;;;;;;5063387;28;20060;-65
2023/08/27 00:14:15;;;;;;;6.13;5.53;;;23.30;99.90;;;;;;5047598;28;20061;-64
2023/08/27 00:16:40;;;;;;;10.98;5.32;;;23.30;99.90;;;;;;5052859;28;20068;-72
2023/08/27 00:19:06;;;;;;;6.68;5.20;;;23.20;99.90;;;;;;5066869;28;20183;-72
2023/08/27 00:21:32;;;;;;;7.15;5.20;;;23.20;99.90;;;;;;5066808;28;20058;-71
2023/08/27 00:23:57;;;;;;;6.35;5.47;;;23.20;99.90;;;;;;5054768;28;21999;-71
2023/08/27 00:26:23;;;;;;;6.53;5.55;;;23.20;99.90;;;;;;5057034;28;20488;-72
2023/08/27 00:28:49;;;;;;;7.15;5.80;;;23.20;99.90;;;;;;5057940;28;20063;-72
2023/08/27 00:31:14;;;;;;;6.53;5.10;;;23.20;99.90;;;;;;5058828;28;20064;-71
2023/08/27 00:33:40;;;;;;;6.78;5.30;;;23.10;99.90;;;;;;5071064;28;20040;-72
2023/08/27 00:36:05;;;;;;;7.78;5.00;;;23.10;99.90;;;;;;5058595;28;20044;-72
2023/08/27 00:38:31;;;;;;;7.47;5.32;;;23.10;99.90;;;;;;5052762;28;20080;-72
2023/08/27 00:40:57;;;;;;;8.32;4.75;;;23.00;99.90;;;;;;5053931;28;20051;-72
2023/08/27 00:43:22;;;;;;;7.13;5.88;;;23.00;99.90;;;;;;5068076;28;20055;-73
2023/08/27 00:45:48;;;;;;;8.00;5.32;;;22.90;99.90;;;;;;5062679;28;20055;-73
2023/08/27 00:48:14;;;;;;;8.30;5.95;;;22.90;99.90;;;;;;5067290;28;20045;-73
2023/08/27 00:50:40;;;;;;;6.80;5.53;;;23.00;99.90;;;;;;5064094;28;20092;-72
2023/08/27 00:53:06;;;;;;;8.27;5.22;;;22.90;99.90;;;;;;5072300;28;20040;-72
2023/08/27 00:55:34;;;;;;;5.90;5.28;;;22.90;99.90;;;;;;5066450;28;20040;-73
2023/08/27 00:57:59;;;;;;;8.40;5.50;;;22.90;99.90;;;;;;5065454;28;20064;-73
2023/08/27 01:00:26;;;;;;;6.82;5.13;;;22.90;99.90;;;;;;5066691;28;20127;-72
2023/08/27 01:02:52;;;;;;;7.38;5.07;;;23.00;99.90;;;;;;5055417;28;20043;-73
2023/08/27 01:05:20;;;;;;;9.27;5.10;;;23.00;99.90;;;;;;5063729;28;20040;-73
2023/08/27 01:08:23;;;;;;;5.28;4.75;;;23.00;99.90;;;;;;5055983;28;20028;-73
2023/08/27 01:11:04;;;;;;;9.02;5.30;;;23.00;99.90;;;;;;5060162;28;20048;-73
2023/08/27 01:13:49;;;;;;;5.07;4.60;;;23.00;99.90;;;;;;5066358;28;20036;-73
2023/08/27 01:16:18;;;;;;;6.75;5.38;;;23.10;99.90;;;;;;5049978;28;20032;-73
2023/08/27 01:18:44;;;;;;;5.85;4.80;;;23.10;99.90;;;;;;5042312;28;22039;-74
2023/08/27 01:21:22;;;;;;;8.27;5.55;;;23.20;99.90;;;;;;5043315;28;20044;-73
2023/08/27 01:23:48;;;;;;;6.22;5.40;;;23.20;99.90;;;;;;5051466;28;20580;-73
2023/08/27 01:26:20;;;;;;;5.68;4.88;;;23.30;99.90;;;;;;5025644;28;20044;-73
2023/08/27 01:28:48;;;;;;;;;;;23.30;99.90;;;;;;5040569;28;20040;-73
2023/08/27 01:31:27;;;;;;;8.50;5.88;;;23.20;99.90;;;;;;5051781;28;19919;-73
2023/08/27 01:33:56;;;;;;;10.90;5.57;;;23.30;99.90;;;;;;5049701;28;20961;-73
2023/08/27 01:36:22;;;;;;;9.75;5.88;;;23.20;99.90;;;;;;5065161;28;20072;-75
2023/08/27 01:38:48;;;;;;;9.63;5.78;;;23.20;99.90;;;;;;5070955;28;20063;-73
2023/08/27 01:41:14;;;;;;;6.95;5.88;;;23.20;99.90;;;;;;5036111;28;20045;-73
2023/08/27 01:43:39;;;;;;;7.20;5.32;;;23.30;99.90;;;;;;5051621;28;20405;-72
2023/08/27 01:46:05;;;;;;;10.60;5.95;;;23.30;99.90;;;;;;5056282;28;20037;-73
2023/08/27 01:48:31;;;;;;;9.60;5.60;;;23.20;99.90;;;;;;5063885;28;20230;-74
2023/08/27 01:50:56;;;;;;;7.47;6.03;;;23.10;99.90;;;;;;5062718;28;20047;-73
2023/08/27 01:53:22;;;;;;;6.88;5.80;;;22.90;99.90;;;;;;5066603;28;20035;-73
2023/08/27 01:55:47;;;;;;;8.98;6.28;;;22.80;99.90;;;;;;5054844;28;20063;-73
2023/08/27 01:58:13;;;;;;;8.73;6.00;;;22.70;99.90;;;;;;5053159;28;20153;-74
2023/08/27 02:00:39;;;;;;;8.65;5.88;;;22.60;99.90;;;;;;5067390;28;20461;-73
2023/08/27 02:03:05;;;;;;;5.95;5.35;;;22.60;99.90;;;;;;5069426;28;20041;-75
2023/08/27 02:05:31;;;;;;;8.07;6.28;;;22.60;99.90;;;;;;5066987;28;20156;-76
2023/08/27 02:07:57;;;;;;;9.88;5.78;;;22.60;99.90;;;;;;5048172;28;20036;-76
2023/08/27 02:10:22;;;;;;;8.02;6.32;;;22.60;99.90;;;;;;5062218;28;20047;-76
2023/08/27 02:12:48;;;;;;;6.28;5.43;;;22.60;99.90;;;;;;5069640;28;20040;-76
2023/08/27 02:15:13;;;;;;;7.07;5.75;;;22.40;99.90;;;;;;5064882;28;20119;-76
2023/08/27 02:17:39;;;;;;;7.18;5.97;;;22.40;99.90;;;;;;5053403;28;20044;-76
2023/08/27 02:20:08;;;;;;;9.10;5.68;;;22.30;99.90;;;;;;5070657;28;20600;-76
2023/08/27 02:22:34;;;;;;;7.28;6.15;;;22.30;99.90;;;;;;5037848;28;20573;-78
2023/08/27 02:25:00;;;;;;;7.38;5.65;;;22.40;99.90;;;;;;5055101;28;20040;-77
2023/08/27 02:27:25;;;;;;;6.82;5.93;;;22.40;99.90;;;;;;5069621;28;20044;-65
2023/08/27 02:29:51;;;;;;;7.70;6.00;;;22.40;99.90;;;;;;5063861;28;20054;-65
2023/08/27 02:32:17;;;;;;;6.03;5.45;;;22.40;99.90;;;;;;5066738;28;20047;-65
2023/08/27 02:34:43;;;;;;;8.52;5.47;;;22.50;99.90;;;;;;5061901;28;20406;-65
2023/08/27 02:37:09;;;;;;;7.07;5.80;;;22.40;99.90;;;;;;5068224;28;20058;-65
2023/08/27 02:39:34;;;;;;;8.70;6.95;;;22.40;99.90;;;;;;5063146;28;20044;-64
2023/08/27 02:42:00;;;;;;;9.00;6.13;;;22.30;99.90;;;;;;5071507;28;20125;-65
2023/08/27 02:44:26;;;;;;;6.40;5.72;;;22.20;99.90;;;;;;5059015;28;20712;-65
2023/08/27 02:46:51;;;;;;;8.35;5.95;;;22.10;99.90;;;;;;5058579;28;20044;-76
2023/08/27 02:49:17;;;;;;;6.30;5.78;;;22.00;99.90;;;;;;5066526;28;20105;-76
2023/08/27 02:51:42;;;;;;;7.38;6.18;;;22.00;99.90;;;;;;5068851;28;20493;-76
2023/08/27 02:54:08;;;;;;;7.63;6.13;;;22.00;99.90;;;;;;5069467;28;20036;-76
2023/08/27 02:56:34;;;;;;;7.57;6.72;;;21.90;99.90;;;;;;5060040;28;20638;-76
2023/08/27 02:58:59;;;;;;;10.70;6.00;;;21.90;99.90;;;;;;5069674;28;20044;-76
2023/08/27 03:01:25;;;;;;;11.25;6.25;;;21.80;99.90;;;;;;5064824;28;20044;-76
2023/08/27 03:03:51;;;;;;;7.70;6.90;;;21.70;99.90;;;;;;5056272;28;20123;-77
2023/08/27 03:06:17;;;;;;;7.72;6.22;;;21.70;99.90;;;;;;5055584;28;20059;-76
2023/08/27 03:08:42;;;;;;;6.93;6.10;;;21.70;99.90;;;;;;5057530;28;20028;-77
2023/08/27 03:11:08;;;;;;;7.03;6.30;;;21.80;99.90;;;;;;5061887;28;20534;-77
2023/08/27 03:13:34;;;;;;;8.73;6.50;;;21.80;99.90;;;;;;5066229;28;20025;-77
2023/08/27 03:16:00;;;;;;;7.50;6.60;;;21.90;99.90;;;;;;5061199;28;20123;-77
2023/08/27 03:18:28;;;;;;;7.88;6.20;;;21.90;99.90;;;;;;5064763;28;20048;-76
2023/08/27 03:20:54;;;;;;;7.68;5.90;;;21.70;99.90;;;;;;5066522;28;20059;-76
2023/08/27 03:23:19;;;;;;;8.48;6.93;;;21.70;99.90;;;;;;5068710;28;20547;-77
2023/08/27 03:25:48;;;;;;;7.43;6.68;;;21.70;99.90;;;;;;5059312;28;20045;-76
2023/08/27 03:28:14;;;;;;;7.28;5.88;;;21.70;99.90;;;;;;5067853;28;20481;-76
2023/08/27 03:30:40;;;;;;;7.70;6.10;;;21.70;99.90;;;;;;5064450;28;20052;-76
2023/08/27 03:33:05;;;;;;;9.90;6.85;;;21.70;99.90;;;;;;5068033;28;20131;-76
2023/08/27 03:35:31;;;;;;;8.63;6.78;;;21.60;99.90;;;;;;5070785;28;20041;-76
2023/08/27 03:37:57;;;;;;;9.18;6.53;;;21.50;99.90;;;;;;5067131;28;20128;-76
2023/08/27 03:40:22;;;;;;;9.70;6.97;;;21.50;99.90;;;;;;5074509;28;20088;-65
2023/08/27 03:42:48;;;;;;;9.32;6.40;;;21.50;99.90;;;;;;5073065;28;20039;-65
2023/08/27 03:45:14;;;;;;;10.02;6.20;;;21.50;99.90;;;;;;5069938;28;20043;-65
2023/08/27 03:47:39;;;;;;;7.68;6.60;;;21.40;99.90;;;;;;5073719;28;20143;-65
2023/08/27 03:50:05;;;;;;;7.82;6.43;;;21.40;99.90;;;;;;5072817;28;20493;-64
2023/08/27 03:52:34;;;;;;;7.60;6.95;;;21.40;99.90;;;;;;5072228;28;20044;-65
2023/08/27 03:55:03;;;;;;;9.75;7.40;;;21.40;99.90;;;;;;5075107;28;20162;-65
2023/08/27 03:57:28;;;;;;;9.15;6.65;;;21.50;99.90;;;;;;5076052;28;20036;-64
2023/08/27 03:59:54;;;;;;;7.60;6.78;;;21.50;99.90;;;;;;5066984;28;20058;-64
2023/08/27 04:02:19;;;;;;;10.25;6.95;;;21.50;99.90;;;;;;5067484;28;20036;-64
2023/08/27 04:04:45;;;;;;;7.55;6.47;;;21.50;99.90;;;;;;5055003;28;20086;-65
2023/08/27 04:07:12;;;;;;;10.20;7.63;;;21.40;99.90;;;;;;5065185;28;20032;-64
2023/08/27 04:09:38;;;;;;;11.48;7.68;;;21.40;99.90;;;;;;5069693;28;20032;-64
2023/08/27 04:12:03;;;;;;;14.93;7.78;;;21.30;99.90;;;;;;5066970;28;20465;-64
2023/08/27 04:14:29;;;;;;;7.88;7.07;;;21.40;99.90;;;;;;5065374;28;20169;-65
2023/08/27 04:16:55;;;;;;;9.68;7.30;;;21.30;99.90;;;;;;5074635;28;20036;-65
2023/08/27 04:19:20;;;;;;;9.15;7.70;;;21.30;99.90;;;;;;5070020;28;20362;-64
2023/08/27 04:21:46;;;;;;;7.35;6.63;;;21.30;99.90;;;;;;5069114;28;20234;-65
2023/08/27 04:24:12;;;;;;;7.85;6.30;;;21.30;99.90;;;;;;5069897;28;20024;-64
2023/08/27 04:26:37;;;;;;;10.27;7.28;;;21.30;99.90;;;;;;5066288;28;20867;-65
2023/08/27 04:29:03;;;;;;;12.00;7.93;;;21.30;99.90;;;;;;5072576;28;20123;-64
2023/08/27 04:31:28;;;;;;;15.38;8.80;;;21.30;99.90;;;;;;5063608;28;20055;-65
2023/08/27 04:33:54;;;;;;;16.70;11.75;;;21.30;99.90;;;;;;5056151;28;20544;-64
2023/08/27 04:36:20;;;;;;;13.23;8.50;;;21.30;99.90;;;;;;5053231;28;20041;-65
2023/08/27 04:38:45;;;;;;;11.88;8.20;;;21.30;99.90;;;;;;5057949;28;20040;-64
2023/08/27 04:41:11;;;;;;;7.63;7.00;;;21.40;99.90;;;;;;5056212;28;20052;-65
2023/08/27 04:43:37;;;;;;;11.07;7.15;;;21.50;99.90;;;;;;5058114;28;20039;-65
2023/08/27 04:46:02;;;;;;;8.55;6.45;;;21.40;99.90;;;;;;5056185;28;20059;-64
2023/08/27 04:48:28;;;;;;;7.28;6.53;;;21.40;99.90;;;;;;5052346;28;20710;-65
2023/08/27 04:50:54;;;;;;;7.13;6.43;;;21.40;99.90;;;;;;5052273;28;21321;-65
2023/08/27 04:53:20;;;;;;;7.72;7.03;;;21.30;99.90;;;;;;5057211;28;20342;-65
2023/08/27 04:55:45;;;;;;;8.85;7.38;;;21.30;99.90;;;;;;5051635;28;20045;-65
2023/08/27 04:58:12;;;;;;;7.28;6.57;;;21.30;99.90;;;;;;5033532;28;20038;-64
2023/08/27 05:00:37;;;;;;;8.15;7.40;;;21.40;99.90;;;;;;5056511;28;20048;-65
2023/08/27 05:03:03;;;;;;;7.95;7.28;;;21.40;99.90;;;;;;5066307;28;20493;-65
2023/08/27 05:05:29;;;;;;;7.65;6.88;;;21.50;99.90;;;;;;5039735;28;20051;-64
2023/08/27 05:07:54;;;;;;;7.47;6.68;;;21.50;99.90;;;;;;5065341;28;20048;-65
2023/08/27 05:10:20;;;;;;;7.82;6.45;;;21.60;99.90;;;;;;5067988;28;20040;-65
2023/08/27 05:12:47;;;;;;;7.93;6.05;;;21.70;99.90;;;;;;5065179;28;20032;-76
2023/08/27 05:15:12;;;;;;;7.55;5.82;;;21.80;99.90;;;;;;5067995;28;20160;-77
2023/08/27 05:17:38;;;;;;;6.93;6.00;;;22.00;99.90;;;;;;5060292;28;20652;-77
2023/08/27 05:20:07;;;;;;;7.70;6.18;;;22.10;99.90;;;;;;5062484;28;20410;-77
2023/08/27 05:22:32;;;;;;;8.52;5.38;;;22.30;99.90;;;;;;5065442;28;20059;-77
2023/08/27 05:24:58;;;;;;;9.07;5.57;;;22.50;99.90;;;;;;5062201;28;20733;-76
2023/08/27 05:27:23;;;;;;;11.82;5.63;;;22.60;99.90;;;;;;5052573;28;20032;-77
2023/08/27 05:29:49;;;;;;;13.38;5.63;;;22.70;99.90;;;;;;5063426;28;20757;-77
2023/08/27 05:32:15;;;;;;;8.93;5.53;;;22.90;99.90;;;;;;5059943;28;20956;-77
2023/08/27 05:34:40;;;;;;;9.63;5.40;;;23.10;99.90;;;;;;5051838;28;20430;-76
2023/08/27 05:37:06;;;;;;;13.25;5.53;;;23.30;99.90;;;;;;5051196;28;20093;-77
2023/08/27 05:39:32;;;;;;;11.10;5.80;;;23.40;99.90;;;;;;5051065;28;20059;-78
2023/08/27 05:41:57;;;;;;;7.75;5.18;;;23.50;99.90;;;;;;5055687;28;20495;-78
2023/08/27 05:44:23;;;;;;;6.03;5.43;;;23.70;99.90;;;;;;5057894;28;20044;-77
2023/08/27 05:46:49;;;;;;;6.22;4.35;;;23.70;99.90;;;;;;5057041;28;20117;-77
2023/08/27 05:49:14;;;;;;;4.25;3.85;;;23.80;99.90;;;;;;5044232;28;20621;-77
2023/08/27 05:51:40;;;;;;;6.13;4.30;;;23.80;99.90;;;;;;5051626;28;20040;-78
2023/08/27 05:54:05;;;;;;;6.68;4.00;;;23.90;99.90;;;;;;5055728;28;20048;-78
2023/08/27 05:56:31;;;;;;;6.18;4.78;;;23.90;99.90;;;;;;5066799;28;20040;-77
2023/08/27 05:58:57;;;;;;;6.68;4.70;;;24.10;99.90;;;;;;5049716;28;20039;-77
2023/08/27 06:01:23;;;;;;;5.03;4.40;;;24.20;99.90;;;;;;5051511;28;20059;-79
2023/08/27 06:03:49;;;;;;;4.65;4.28;;;24.30;99.90;;;;;;5048203;28;20157;-77
2023/08/27 06:06:14;;;;;;;9.52;4.50;;;24.40;99.90;;;;;;5063649;28;20370;-76
2023/08/27 06:08:40;;;;;;;11.18;4.57;;;24.50;99.90;;;;;;5056321;28;20032;-82
2023/08/27 06:11:06;;;;;;;11.30;5.30;;;24.70;99.90;;;;;;5072839;28;20734;-81
2023/08/27 06:13:31;;;;;;;5.80;4.45;;;24.80;99.90;;;;;;5070086;28;20028;-78
2023/08/27 06:15:57;;;;;;;7.90;4.85;;;25.00;99.90;;;;;;5066358;28;20047;-79
2023/08/27 06:18:23;;;;;;;7.97;4.47;;;25.10;99.90;;;;;;5039134;28;21818;-78
2023/08/27 06:20:49;;;;;;;11.25;4.70;;;25.20;99.90;;;;;;5068577;28;20044;-79
2023/08/27 06:23:14;;;;;;;10.60;4.90;;;25.30;99.90;;;;;;5060312;28;20098;-78
2023/08/27 06:25:40;;;;;;;6.70;4.70;;;25.50;99.90;;;;;;5072114;28;20451;-65
2023/08/27 06:28:07;;;;;;;5.68;4.47;;;25.60;99.90;;;;;;5060324;28;20053;-65
2023/08/27 06:30:33;;;;;;;6.47;5.00;;;25.70;99.90;;;;;;5066763;28;20067;-65
2023/08/27 06:32:59;;;;;;;5.78;5.20;;;25.80;99.90;;;;;;5064059;28;20039;-66
2023/08/27 06:35:25;;;;;;;6.05;5.07;;;25.90;99.90;;;;;;5064935;28;20032;-66
2023/08/27 06:37:51;;;;;;;5.78;5.03;;;26.00;99.90;;;;;;5065544;28;20080;-65
2023/08/27 06:40:16;;;;;;;7.55;5.07;;;26.10;99.90;;;;;;5064382;28;20044;-66
2023/08/27 06:42:42;;;;;;;10.77;5.65;;;26.20;99.90;;;;;;5057482;28;20415;-65
2023/08/27 06:45:08;;;;;;;13.35;5.50;;;26.30;99.90;;;;;;5065829;28;20063;-65
2023/08/27 06:47:35;;;;;;;7.72;5.82;;;26.40;99.90;;;;;;5060398;28;20024;-65
2023/08/27 06:50:00;;;;;;;6.30;5.32;;;26.40;99.90;;;;;;5069620;28;20111;-65
2023/08/27 06:52:26;;;;;;;6.05;5.40;;;26.50;99.90;;;;;;5054554;28;20553;-65
2023/08/27 06:54:52;;;;;;;6.93;5.15;;;26.60;99.90;;;;;;5061088;28;20538;-65
2023/08/27 06:57:17;;;;;;;8.38;5.50;;;26.60;99.90;;;;;;5066108;28;20163;-65
2023/08/27 06:59:43;;;;;;;5.65;5.10;;;26.60;99.90;;;;;;5071113;28;20136;-65
2023/08/27 07:02:09;;;;;;;7.13;5.35;;;26.60;99.90;;;;;;5071029;28;21208;-75
2023/08/27 07:04:34;;;;;;;8.88;5.55;;;26.50;99.90;;;;;;5037832;28;20032;-75
2023/08/27 07:07:00;;;;;;;6.72;4.97;;;26.50;99.90;;;;;;5061854;28;20060;-75
2023/08/27 07:09:27;;;;;;;6.72;5.03;;;26.60;99.90;;;;;;5071913;28;20036;-76
2023/08/27 07:11:53;;;;;;;6.53;5.30;;;26.60;99.90;;;;;;5067610;28;20032;-76
2023/08/27 07:14:18;;;;;;;6.63;5.60;;;26.70;99.90;;;;;;5050796;28;20097;-76
2023/08/27 07:16:44;;;;;;;8.73;5.50;;;26.70;99.90;;;;;;5067771;28;20032;-76
2023/08/27 07:19:11;;;;;;;7.57;5.28;;;26.80;99.90;;;;;;5073735;28;20052;-76
2023/08/27 07:21:37;;;;;;;5.88;5.28;;;26.80;99.90;;;;;;5075181;28;20055;-65
2023/08/27 07:24:03;;;;;;;6.40;5.72;;;26.80;99.90;;;;;;5059309;28;20045;-65
2023/08/27 07:26:29;;;;;;;9.20;5.55;;;26.80;99.90;;;;;;5062467;28;20166;-65
2023/08/27 07:28:56;;;;;;;7.68;5.82;;;27.00;99.90;;;;;;5070496;28;20757;-66
2023/08/27 07:31:21;;;;;;;6.88;5.63;;;27.10;99.90;;;;;;5071586;28;20803;-65
2023/08/27 07:33:47;;;;;;;6.00;5.45;;;27.20;99.90;;;;;;5066906;28;20036;-65
2023/08/27 07:36:13;;;;;;;6.13;5.55;;;27.40;99.90;;;;;;5059951;28;20113;-65
2023/08/27 07:38:40;;;;;;;8.65;6.18;;;27.60;99.90;;;;;;5059754;28;20044;-65
2023/08/27 07:41:06;;;;;;;7.10;5.68;;;27.80;99.90;;;;;;5056907;28;20048;-65
2023/08/27 07:43:32;;;;;;;6.88;6.22;;;27.90;99.90;;;;;;5054273;28;20042;-65
2023/08/27 07:45:58;;;;;;;8.57;6.07;;;28.00;99.90;;;;;;5051053;28;20032;-65
2023/08/27 07:48:23;;;;;;;9.13;5.47;;;28.00;99.90;;;;;;5072563;28;20043;-69
2023/08/27 07:50:50;;;;;;;9.07;6.03;;;28.10;99.90;;;;;;5062251;28;20452;-66
2023/08/27 07:53:16;;;;;;;6.72;6.05;;;28.10;99.90;;;;;;5070085;28;20192;-66
2023/08/27 07:55:41;;;;;;;6.30;5.40;;;28.20;99.90;;;;;;5062904;28;20512;-66
2023/08/27 07:58:07;;;;;;;5.70;5.15;;;28.20;99.90;;;;;;5058505;28;20021;-76
2023/08/27 08:00:33;;;;;;;7.32;4.90;;;28.40;99.90;;;;;;5063410;28;20056;-75
2023/08/27 08:02:59;;;;;;;8.30;5.43;;;28.50;99.90;;;;;;5066104;28;20453;-76
2023/08/27 08:05:25;;;;;;;6.47;4.95;;;28.50;99.90;;;;;;5066669;28;20071;-75
2023/08/27 08:07:51;;;;;;;6.93;5.63;;;28.50;99.90;;;;;;5053776;28;20047;-76
2023/08/27 08:10:18;;;;;;;8.02;5.53;;;28.60;99.90;;;;;;5047950;28;20408;-75
2023/08/27 08:12:44;;;;;;;9.05;5.25;;;28.60;99.90;;;;;;5061096;28;20062;-76
2023/08/27 08:15:10;;;;;;;6.65;5.90;;;28.60;99.90;;;;;;5074891;28;20722;-75
2023/08/27 08:17:35;;;;;;;6.57;5.50;;;28.70;99.90;;;;;;5048897;28;20613;-66
2023/08/27 08:20:03;;;;;;;6.00;5.45;;;28.80;99.90;;;;;;5069955;28;20051;-66
2023/08/27 08:22:28;;;;;;;7.50;5.60;;;28.80;99.90;;;;;;5057867;28;21042;-66
2023/08/27 08:24:55;;;;;;;6.43;4.80;;;28.80;99.90;;;;;;5061780;28;20039;-65
2023/08/27 08:27:21;;;;;;;5.90;5.22;;;28.80;99.90;;;;;;5057996;28;20047;-66
2023/08/27 08:29:47;;;;;;;10.32;5.60;;;29.00;99.90;;;;;;5068907;28;20032;-66
2023/08/27 08:32:12;;;;;;;7.13;5.43;;;29.10;99.90;;;;;;5067145;28;20040;-66
2023/08/27 08:34:39;;;;;;;8.55;5.25;;;29.10;99.90;;;;;;5062007;28;20024;-66
2023/08/27 08:37:05;;;;;;;6.45;5.60;;;29.10;99.90;;;;;;5067953;28;20047;-66
2023/08/27 08:39:31;;;;;;;6.65;6.05;;;29.10;99.90;;;;;;5064484;28;20618;-66
2023/08/27 08:42:27;;;;;;;5.75;5.18;;;29.20;99.90;;;;;;5072164;28;20067;-66
2023/08/27 08:45:13;;;;;;;12.73;5.88;;;29.30;99.90;;;;;;5069995;28;20036;-63
2023/08/27 08:47:39;;;;;;;6.05;5.45;;;29.40;99.90;;;;;;5077508;28;20041;-66
2023/08/27 08:50:08;;;;;;;6.95;5.97;;;29.50;99.90;;;;;;5063289;28;20068;-66
2023/08/27 08:52:41;;;;;;;6.50;6.00;;;29.50;99.90;;;;;;5066115;28;20047;-76
2023/08/27 08:55:09;;;;;;;9.00;5.75;;;29.40;99.90;;;;;;5064960;28;20024;-76
2023/08/27 08:57:57;;;;;;;9.90;5.82;;;29.50;99.90;;;;;;5068685;28;20044;-76
2023/08/27 09:00:24;;;;;;;9.07;5.47;;;29.50;99.90;;;;;;5066689;28;20718;-73
2023/08/27 09:02:51;;;;;;;6.45;5.55;;;29.60;99.90;;;;;;5070674;28;20036;-73
2023/08/27 09:05:18;;;;;;;6.82;5.53;;;29.70;99.90;;;;;;5070129;28;20042;-76
2023/08/27 09:07:45;;;;;;;7.22;5.50;;;29.70;99.90;;;;;;5075046;28;20120;-76
2023/08/27 09:10:13;;;;;;;8.52;6.10;;;29.80;99.90;;;;;;5064978;28;20596;-66
2023/08/27 09:12:40;;;;;;;5.97;5.18;;;29.80;99.90;;;;;;5073525;28;20047;-66
2023/08/27 09:15:09;;;;;;;6.75;5.63;;;29.80;99.90;;;;;;5064194;28;20801;-66
2023/08/27 09:17:38;;;;;;;5.97;5.43;;;29.80;99.90;;;;;;5054119;28;24993;-66
2023/08/27 09:20:07;;;;;;;8.52;5.80;;;29.90;99.90;;;;;;5063286;28;20135;-66
2023/08/27 09:22:35;;;;;;;9.77;6.15;;;29.90;99.90;;;;;;5061763;28;20040;-66
2023/08/27 09:25:01;;;;;;;6.35;5.55;;;30.00;99.90;;;;;;5063455;28;20102;-66
2023/08/27 09:27:27;;;;;;;8.68;5.75;;;30.00;99.90;;;;;;5052499;28;20099;-66
2023/08/27 09:29:54;;;;;;;6.20;5.60;;;30.10;99.90;;;;;;5078642;28;20047;-66
2023/08/27 09:32:22;;;;;;;6.80;6.20;;;30.10;99.90;;;;;;5046144;28;20076;-66
2023/08/27 09:34:48;;;;;;;5.85;5.25;;;30.10;99.90;;;;;;5047267;28;20043;-66
2023/08/27 09:37:14;;;;;;;6.88;5.47;;;30.10;99.90;;;;;;5064993;28;20033;-66
2023/08/27 09:39:42;;;;;;;8.52;6.35;;;30.20;99.90;;;;;;5061233;28;21248;-66
2023/08/27 09:42:11;;;;;;;8.65;6.35;;;30.30;99.90;;;;;;5071070;28;20567;-66
2023/08/27 09:44:37;;;;;;;7.10;6.28;;;30.30;99.90;;;;;;5075738;28;20041;-66
2023/08/27 09:47:05;;;;;;;8.52;5.20;;;30.20;99.90;;;;;;5073567;28;20040;-66
2023/08/27 09:49:30;;;;;;;6.32;5.53;;;30.30;99.90;;;;;;5075416;28;20075;-66
2023/08/27 09:51:58;;;;;;;6.43;5.65;;;30.30;99.90;;;;;;5068155;28;20131;-66
2023/08/27 09:54:29;;;;;;;6.18;5.63;;;30.40;99.90;;;;;;5071570;28;20040;-66
2023/08/27 09:56:59;;;;;;;7.15;6.25;;;30.50;99.90;;;;;;5070349;28;20476;-66
2023/08/27 09:59:25;;;;;;;6.65;5.75;;;30.50;99.90;;;;;;5074074;28;20036;-66
2023/08/27 10:01:52;;;;;;;8.60;6.40;;;30.60;99.90;;;;;;5066773;28;20791;-67
2023/08/27 10:04:19;;;;;;;9.38;5.45;;;30.60;99.90;;;;;;5073169;28;20040;-64
2023/08/27 10:06:45;;;;;;;6.88;5.28;;;30.70;99.90;;;;;;5050811;28;20046;-66
2023/08/27 10:09:11;;;;;;;6.80;6.20;;;30.70;99.90;;;;;;5067123;28;20024;-64
2023/08/27 10:11:38;;;;;;;7.78;5.78;;;30.70;99.90;;;;;;5066633;28;20051;-64
2023/08/27 10:14:04;;;;;;;6.28;5.68;;;30.80;99.90;;;;;;5066092;28;20021;-65
2023/08/27 10:16:36;;;;;;;5.57;5.10;;;30.80;99.90;;;;;;5069194;28;20071;-65
2023/08/27 10:19:04;;;;;;;6.68;6.00;;;30.90;99.90;;;;;;5070518;28;20043;-64
2023/08/27 10:21:30;;;;;;;7.63;5.35;;;31.10;99.90;;;;;;5066506;28;20143;-64
2023/08/27 10:23:57;;;;;;;7.97;5.60;;;31.10;99.90;;;;;;5071248;28;20558;-65
2023/08/27 10:26:23;;;;;;;8.68;5.15;;;31.10;99.90;;;;;;5063223;28;20048;-65
2023/08/27 10:28:54;;;;;;;8.40;6.03;;;31.20;99.90;;;;;;5068742;28;20029;-65
2023/08/27 10:31:20;;;;;;;5.97;5.38;;;31.20;99.90;;;;;;5062940;28;20040;-65
2023/08/27 10:33:46;;;;;;;7.50;5.60;;;31.20;99.90;;;;;;5061576;28;20044;-65
2023/08/27 10:36:18;;;;;;;7.88;5.65;;;31.20;99.90;;;;;;5067792;28;20093;-65
2023/08/27 10:38:44;;;;;;;;;;;31.20;99.90;;;;;;5070340;28;20444;-65
2023/08/27 10:41:14;;;;;;;8.00;5.22;;;31.30;99.90;;;;;;5069973;28;19924;-65
2023/08/27 10:43:40;;;;;;;5.43;4.85;;;31.30;99.90;;;;;;5071922;28;20047;-65
2023/08/27 10:46:16;;;;;;;5.88;5.28;;;31.50;99.90;;;;;;5061705;28;20048;-65
2023/08/27 10:48:48;;;;;;;6.88;5.47;;;31.60;99.90;;;;;;5069605;28;20111;-65
2023/08/27 10:51:17;;;;;;;6.28;4.72;;;31.60;99.90;;;;;;5067859;28;20110;-64
2023/08/27 10:53:48;;;;;;;6.55;5.63;;;31.50;99.90;;;;;;5064563;28;20036;-65
2023/08/27 10:56:36;;;;;;;5.80;5.20;;;31.50;99.90;;;;;;5068784;28;21441;-64
2023/08/27 10:59:10;;;;;;;6.03;5.40;;;31.50;99.90;;;;;;5069165;28;20051;-64
2023/08/27 11:02:09;;;;;;;6.20;5.43;;;31.60;99.90;;;;;;5072140;28;20814;-66
2023/08/27 11:04:40;;;;;;;8.52;6.43;;;31.60;99.90;;;;;;5020597;28;20039;-65
2023/08/27 11:07:14;;;;;;;9.33;5.70;;;31.60;99.90;;;;;;5059338;28;20041;-65
2023/08/27 11:09:57;;;;;;;6.32;5.32;;;31.60;99.90;;;;;;5067238;28;20042;-64
2023/08/27 11:12:35;;;;;;;7.20;5.65;;;31.70;99.90;;;;;;5066540;28;20052;-65
2023/08/27 11:15:14;;;;;;;5.97;5.50;;;31.70;99.90;;;;;;5068791;28;20546;-64
2023/08/27 11:17:41;;;;;;;6.88;5.47;;;31.80;99.90;;;;;;5065915;28;20048;-64
2023/08/27 11:20:27;;;;;;;6.88;5.60;;;31.90;99.90;;;;;;5068260;28;20043;-74
2023/08/27 11:23:08;;;;;;;6.85;5.70;;;32.00;99.90;;;;;;5056908;28;20154;-74
2023/08/27 11:25:36;;;;;;;10.23;5.78;;;32.00;99.90;;;;;;5066269;28;20032;-74
2023/08/27 11:28:04;;;;;;;6.00;5.47;;;32.20;99.90;;;;;;5066216;28;20047;-74
2023/08/27 11:30:30;;;;;;;7.53;5.18;;;32.40;99.90;;;;;;5062183;28;20720;-74
2023/08/27 11:32:56;;;;;;;5.97;5.47;;;32.50;99.90;;;;;;5067270;28;20102;-74
2023/08/27 11:35:28;;;;;;;6.15;5.65;;;32.60;99.90;;;;;;5064661;28;20110;-75
2023/08/27 11:37:55;;;;;;;6.22;5.72;;;32.70;99.90;;;;;;5046452;28;20044;-74
2023/08/27 11:40:22;;;;;;;6.68;5.47;;;32.70;99.90;;;;;;5071771;28;20040;-74
2023/08/27 11:42:52;;;;;;;6.25;5.75;;;32.70;99.90;;;;;;5070314;28;20035;-74
2023/08/27 11:45:32;;;;;;;6.60;6.00;;;32.70;99.90;;;;;;5071401;28;20149;-74
2023/08/27 11:48:08;;;;;;;7.47;5.85;;;32.60;99.80;;;;;;5076895;28;20109;-75
2023/08/27 11:50:37;;;;;;;6.70;6.00;;;32.50;99.60;;;;;;5077189;28;20035;-74
2023/08/27 11:53:04;;;;;;;8.48;6.00;;;32.50;99.70;;;;;;5073915;28;20040;-75
2023/08/27 11:55:31;;;;;;;6.05;5.55;;;32.50;99.30;;;;;;5078399;28;20054;-75
2023/08/27 11:57:57;;;;;;;6.85;6.15;;;32.50;99.40;;;;;;5072650;28;20048;-74
2023/08/27 12:00:23;;;;;;;8.07;6.00;;;32.60;99.80;;;;;;5077895;28;20198;-74
2023/08/27 12:02:48;;;;;;;8.80;6.90;;;32.60;99.60;;;;;;5071086;28;20918;-74
2023/08/27 12:05:14;;;;;;;7.60;6.18;;;32.60;99.10;;;;;;5067471;28;20519;-74
2023/08/27 12:07:40;;;;;;;6.82;6.03;;;32.60;98.60;;;;;;5063299;28;20041;-75
2023/08/27 12:10:11;;;;;;;8.80;6.07;;;32.80;99.60;;;;;;5052891;28;20637;-75
2023/08/27 12:12:41;;;;;;;6.10;5.53;;;33.00;99.90;;;;;;5054583;28;20043;-75
2023/08/27 12:15:08;;;;;;;6.10;5.60;;;33.20;99.80;;;;;;5065339;28;20431;-74
2023/08/27 12:17:35;;;;;;;6.88;6.15;;;33.40;98.20;;;;;;5069713;28;20389;-74
2023/08/27 12:20:06;;;;;;;8.63;6.50;;;33.50;98.30;;;;;;5060561;28;20111;-75
2023/08/27 12:22:43;;;;;;;6.90;6.22;;;33.60;98.30;;;;;;5064570;28;20072;-74
2023/08/27 12:25:09;;;;;;;8.82;6.20;;;33.70;98.20;;;;;;5065937;28;20028;-66
2023/08/27 12:27:34;;;;;;;10.23;6.82;;;33.80;96.70;;;;;;5067192;28;20036;-66
2023/08/27 12:30:00;;;;;;;9.82;6.72;;;33.70;97.30;;;;;;5066950;28;20097;-65
2023/08/27 12:32:32;;;;;;;7.43;6.05;;;33.70;95.50;;;;;;5071690;28;20032;-66
2023/08/27 12:34:59;;;;;;;8.88;6.10;;;33.70;96.00;;;;;;5066920;28;20039;-66
2023/08/27 12:37:27;;;;;;;10.60;6.25;;;33.50;95.20;;;;;;5078843;28;20038;-67
2023/08/27 12:39:53;;;;;;;9.10;6.40;;;33.50;96.30;;;;;;5059371;28;20104;-66
2023/08/27 12:42:25;;;;;;;10.15;6.43;;;33.50;96.10;;;;;;5069613;28;20064;-67
2023/08/27 12:44:50;;;;;;;10.43;6.60;;;33.60;95.70;;;;;;5064037;28;20056;-67
2023/08/27 12:47:16;;;;;;;9.52;6.93;;;33.70;95.30;;;;;;5045428;28;20044;-67